sensor_id;sensor_type;location;lat;lon;timestamp;P1;durP1;ratioP1;P2;durP2;ratioP2
3643;SDS011;1838;50.742;7.158;2022-09-24T00:01:26;11.60;;;6.93;;
3643;SDS011;1838;50.742;7.158;2022-09-24T00:03:54;7.27;;;6.57;;
3643;SDS011;1838;50.742;7.158;2022-09-24T00:06:25;10.03;;;6.93;;
3643;SDS011;1838;50.742;7.158;2022-09-24T00:08:52;8.07;;;6.93;;
3643;SDS011;1838;50.742;7.158;2022-09-24T00:11:20;12.60;;;6.77;;
3643;SDS011;1838;50.742;7.158;2022-09-24T00:13:47;10.97;;;6.23;;
3643;SDS011;1838;50.742;7.158;2022-09-24T00:16:15;11.50;;;5.90;;
3643;SDS011;1838;50.742;7.158;2022-09-24T00:18:43;11.60;;;6.67;;
3643;SDS011;1838;50.742;7.158;2022-09-24T00:21:13;8.13;;;6.90;;
3643;SDS011;1838;50.742;7.158;2022-09-24T00:23:40;10.07;;;6.37;;
3643;SDS011;1838;50.742;7.158;2022-09-24T00:26:05;12.80;;;7.73;;
3643;SDS011;1838;50.742;7.158;2022-09-24T00:28:52;24.90;;;10.73;;
3643;SDS011;1838;50.742;7.158;2022-09-24T00:31:17;13.97;;;10.23;;
3643;SDS011;1838;50.742;7.158;2022-09-24T00:33:43;14.70;;;10.23;;
3643;SDS011;1838;50.742;7.158;2022-09-24T00:36:09;11.07;;;9.20;;
3643;SDS011;1838;50.742;7.158;2022-09-24T00:38:34;11.90;;;8.90;;
3643;SDS011;1838;50.742;7.158;2022-09-24T00:41:00;15.07;;;8.60;;
3643;SDS011;1838;50.742;7.158;2022-09-24T00:43:28;9.90;;;8.10;;
3643;SDS011;1838;50.742;7.158;2022-09-24T00:46:06;11.00;;;8.00;;
3643;SDS011;1838;50.742;7.158;2022-09-24T00:48:39;10.30;;;7.70;;
3643;SDS011;1838;50.742;7.158;2022-09-24T00:51:06;9.13;;;8.23;;
3643;SDS011;1838;50.742;7.158;2022-09-24T00:53:34;9.87;;;7.43;;
3643;SDS011;1838;50.742;7.158;2022-09-24T00:56:00;12.40;;;6.93;;
3643;SDS011;1838;50.742;7.158;2022-09-24T00:58:28;10.77;;;8.17;;
3643;SDS011;1838;50.742;7.158;2022-09-24T01:01:03;12.63;;;7.43;;
3643;SDS011;1838;50.742;7.158;2022-09-24T01:03:30;9.23;;;8.03;;
3643;SDS011;1838;50.742;7.158;2022-09-24T01:05:59;11.53;;;8.17;;
3643;SDS011;1838;50.742;7.158;2022-09-24T01:08:25;13.60;;;7.60;;
3643;SDS011;1838;50.742;7.158;2022-09-24T01:11:00;12.57;;;7.10;;
3643;SDS011;1838;50.742;7.158;2022-09-24T01:19:16;12.20;;;7.60;;
3643;SDS011;1838;50.742;7.158;2022-09-24T01:24:46;15.57;;;8.47;;
3643;SDS011;1838;50.742;7.158;2022-09-24T01:27:29;12.30;;;8.53;;
3643;SDS011;1838;50.742;7.158;2022-09-24T01:30:17;33.53;;;12.27;;
3643;SDS011;1838;50.742;7.158;2022-09-24T01:32:56;40.83;;;15.63;;
3643;SDS011;1838;50.742;7.158;2022-09-24T01:35:31;35.53;;;15.90;;
3643;SDS011;1838;50.742;7.158;2022-09-24T01:38:02;30.40;;;13.77;;
3643;SDS011;1838;50.742;7.158;2022-09-24T01:40:32;34.40;;;14.30;;
3643;SDS011;1838;50.742;7.158;2022-09-24T01:43:00;35.30;;;14.53;;
3643;SDS011;1838;50.742;7.158;2022-09-24T01:45:28;32.40;;;12.53;;
3643;SDS011;1838;50.742;7.158;2022-09-24T01:47:55;23.47;;;11.00;;
3643;SDS011;1838;50.742;7.158;2022-09-24T01:50:23;21.60;;;12.83;;
3643;SDS011;1838;50.742;7.158;2022-09-24T01:52:55;20.70;;;11.23;;
3643;SDS011;1838;50.742;7.158;2022-09-24T01:55:27;33.47;;;13.10;;
3643;SDS011;1838;50.742;7.158;2022-09-24T01:57:59;23.27;;;11.97;;
3643;SDS011;1838;50.742;7.158;2022-09-24T02:00:29;40.50;;;15.10;;
3643;SDS011;1838;50.742;7.158;2022-09-24T02:03:04;57.47;;;18.30;;
3643;SDS011;1838;50.742;7.158;2022-09-24T02:05:37;26.33;;;11.73;;
3643;SDS011;1838;50.742;7.158;2022-09-24T02:08:20;28.10;;;11.10;;
3643;SDS011;1838;50.742;7.158;2022-09-24T02:10:55;28.20;;;11.87;;
3643;SDS011;1838;50.742;7.158;2022-09-24T02:13:26;27.10;;;12.40;;
3643;SDS011;1838;50.742;7.158;2022-09-24T02:16:01;36.93;;;13.33;;
3643;SDS011;1838;50.742;7.158;2022-09-24T02:18:31;26.73;;;12.43;;
3643;SDS011;1838;50.742;7.158;2022-09-24T02:21:00;34.23;;;12.20;;
3643;SDS011;1838;50.742;7.158;2022-09-24T02:23:30;36.13;;;15.67;;
3643;SDS011;1838;50.742;7.158;2022-09-24T02:26:01;38.77;;;14.53;;
3643;SDS011;1838;50.742;7.158;2022-09-24T02:28:28;29.93;;;14.20;;
3643;SDS011;1838;50.742;7.158;2022-09-24T02:30:58;26.80;;;13.07;;
3643;SDS011;1838;50.742;7.158;2022-09-24T02:33:30;31.23;;;14.43;;
3643;SDS011;1838;50.742;7.158;2022-09-24T02:36:16;35.77;;;15.03;;
3643;SDS011;1838;50.742;7.158;2022-09-24T02:38:42;65.50;;;22.47;;
3643;SDS011;1838;50.742;7.158;2022-09-24T02:41:10;29.27;;;12.90;;
3643;SDS011;1838;50.742;7.158;2022-09-24T02:43:36;26.93;;;13.20;;
3643;SDS011;1838;50.742;7.158;2022-09-24T02:46:02;30.47;;;12.40;;
3643;SDS011;1838;50.742;7.158;2022-09-24T02:48:28;19.00;;;9.60;;
3643;SDS011;1838;50.742;7.158;2022-09-24T02:50:54;27.10;;;10.10;;
3643;SDS011;1838;50.742;7.158;2022-09-24T02:53:19;14.50;;;9.20;;
3643;SDS011;1838;50.742;7.158;2022-09-24T02:55:45;15.13;;;8.90;;
3643;SDS011;1838;50.742;7.158;2022-09-24T02:58:10;13.17;;;7.83;;
3643;SDS011;1838;50.742;7.158;2022-09-24T03:00:36;13.97;;;8.70;;
3643;SDS011;1838;50.742;7.158;2022-09-24T03:03:01;21.23;;;9.37;;
3643;SDS011;1838;50.742;7.158;2022-09-24T03:05:27;18.47;;;9.90;;
3643;SDS011;1838;50.742;7.158;2022-09-24T03:07:52;20.60;;;10.87;;
3643;SDS011;1838;50.742;7.158;2022-09-24T03:10:18;22.67;;;10.17;;
3643;SDS011;1838;50.742;7.158;2022-09-24T03:12:44;15.43;;;9.50;;
3643;SDS011;1838;50.742;7.158;2022-09-24T03:15:09;15.60;;;8.30;;
3643;SDS011;1838;50.742;7.158;2022-09-24T03:17:35;11.90;;;9.00;;
3643;SDS011;1838;50.742;7.158;2022-09-24T03:20:01;11.10;;;8.30;;
3643;SDS011;1838;50.742;7.158;2022-09-24T03:22:26;10.93;;;7.70;;
3643;SDS011;1838;50.742;7.158;2022-09-24T03:24:52;13.23;;;8.90;;
3643;SDS011;1838;50.742;7.158;2022-09-24T03:27:18;10.73;;;8.17;;
3643;SDS011;1838;50.742;7.158;2022-09-24T03:29:44;12.50;;;8.27;;
3643;SDS011;1838;50.742;7.158;2022-09-24T03:32:28;13.73;;;8.50;;
3643;SDS011;1838;50.742;7.158;2022-09-24T03:34:53;11.80;;;7.57;;
3643;SDS011;1838;50.742;7.158;2022-09-24T03:37:19;9.70;;;7.83;;
3643;SDS011;1838;50.742;7.158;2022-09-24T03:39:44;15.63;;;8.30;;
3643;SDS011;1838;50.742;7.158;2022-09-24T03:42:10;17.07;;;8.10;;
3643;SDS011;1838;50.742;7.158;2022-09-24T03:44:35;9.70;;;7.37;;
3643;SDS011;1838;50.742;7.158;2022-09-24T03:47:01;11.57;;;8.50;;
3643;SDS011;1838;50.742;7.158;2022-09-24T03:49:26;12.57;;;8.70;;
3643;SDS011;1838;50.742;7.158;2022-09-24T03:51:52;13.53;;;9.33;;
3643;SDS011;1838;50.742;7.158;2022-09-24T03:54:17;13.10;;;10.27;;
3643;SDS011;1838;50.742;7.158;2022-09-24T03:56:43;11.87;;;10.67;;
3643;SDS011;1838;50.742;7.158;2022-09-24T03:59:09;15.40;;;11.00;;
3643;SDS011;1838;50.742;7.158;2022-09-24T04:01:34;14.80;;;11.00;;
3643;SDS011;1838;50.742;7.158;2022-09-24T04:04:01;13.60;;;11.40;;
3643;SDS011;1838;50.742;7.158;2022-09-24T04:06:27;16.50;;;10.57;;
3643;SDS011;1838;50.742;7.158;2022-09-24T04:08:52;13.80;;;10.80;;
3643;SDS011;1838;50.742;7.158;2022-09-24T04:11:18;12.23;;;9.00;;
3643;SDS011;1838;50.742;7.158;2022-09-24T04:13:44;12.63;;;9.57;;
3643;SDS011;1838;50.742;7.158;2022-09-24T04:16:09;11.00;;;9.60;;
3643;SDS011;1838;50.742;7.158;2022-09-24T04:18:35;10.57;;;9.33;;
3643;SDS011;1838;50.742;7.158;2022-09-24T04:21:00;12.03;;;9.20;;
3643;SDS011;1838;50.742;7.158;2022-09-24T04:23:26;12.73;;;8.37;;
3643;SDS011;1838;50.742;7.158;2022-09-24T04:25:52;8.63;;;7.73;;
3643;SDS011;1838;50.742;7.158;2022-09-24T04:28:18;10.13;;;8.40;;
3643;SDS011;1838;50.742;7.158;2022-09-24T04:30:44;9.47;;;7.87;;
3643;SDS011;1838;50.742;7.158;2022-09-24T04:33:10;14.70;;;7.80;;
3643;SDS011;1838;50.742;7.158;2022-09-24T04:35:35;9.60;;;8.33;;
3643;SDS011;1838;50.742;7.158;2022-09-24T04:38:01;8.73;;;7.33;;
3643;SDS011;1838;50.742;7.158;2022-09-24T04:40:30;8.17;;;7.00;;
3643;SDS011;1838;50.742;7.158;2022-09-24T04:42:56;11.10;;;7.33;;
3643;SDS011;1838;50.742;7.158;2022-09-24T04:45:21;8.60;;;7.50;;
3643;SDS011;1838;50.742;7.158;2022-09-24T04:47:49;10.90;;;8.17;;
3643;SDS011;1838;50.742;7.158;2022-09-24T04:50:21;9.20;;;7.60;;
3643;SDS011;1838;50.742;7.158;2022-09-24T04:52:48;9.53;;;8.00;;
3643;SDS011;1838;50.742;7.158;2022-09-24T04:55:14;11.83;;;8.87;;
3643;SDS011;1838;50.742;7.158;2022-09-24T04:57:40;9.00;;;7.40;;
3643;SDS011;1838;50.742;7.158;2022-09-24T05:00:07;8.20;;;7.20;;
3643;SDS011;1838;50.742;7.158;2022-09-24T05:02:36;9.60;;;7.30;;
3643;SDS011;1838;50.742;7.158;2022-09-24T05:05:02;11.77;;;7.90;;
3643;SDS011;1838;50.742;7.158;2022-09-24T05:07:27;7.83;;;7.03;;
3643;SDS011;1838;50.742;7.158;2022-09-24T05:09:53;14.27;;;8.97;;
3643;SDS011;1838;50.742;7.158;2022-09-24T05:12:18;12.10;;;8.80;;
3643;SDS011;1838;50.742;7.158;2022-09-24T05:14:45;14.50;;;7.90;;
3643;SDS011;1838;50.742;7.158;2022-09-24T05:17:10;9.70;;;8.70;;
3643;SDS011;1838;50.742;7.158;2022-09-24T05:19:36;11.43;;;9.73;;
3643;SDS011;1838;50.742;7.158;2022-09-24T05:22:01;14.83;;;9.27;;
3643;SDS011;1838;50.742;7.158;2022-09-24T05:24:27;16.90;;;9.60;;
3643;SDS011;1838;50.742;7.158;2022-09-24T05:26:53;12.47;;;9.70;;
3643;SDS011;1838;50.742;7.158;2022-09-24T05:29:41;10.87;;;8.70;;
3643;SDS011;1838;50.742;7.158;2022-09-24T05:32:11;13.40;;;8.77;;
3643;SDS011;1838;50.742;7.158;2022-09-24T05:34:39;14.00;;;9.20;;
3643;SDS011;1838;50.742;7.158;2022-09-24T05:37:07;11.73;;;8.60;;
3643;SDS011;1838;50.742;7.158;2022-09-24T05:39:33;10.80;;;9.20;;
3643;SDS011;1838;50.742;7.158;2022-09-24T05:41:58;16.13;;;9.50;;
3643;SDS011;1838;50.742;7.158;2022-09-24T05:44:27;12.43;;;8.73;;
3643;SDS011;1838;50.742;7.158;2022-09-24T05:46:53;11.00;;;8.30;;
3643;SDS011;1838;50.742;7.158;2022-09-24T05:49:19;9.00;;;8.10;;
3643;SDS011;1838;50.742;7.158;2022-09-24T05:51:46;12.93;;;7.63;;
3643;SDS011;1838;50.742;7.158;2022-09-24T05:54:13;11.53;;;9.70;;
3643;SDS011;1838;50.742;7.158;2022-09-24T05:56:38;13.00;;;8.67;;
3643;SDS011;1838;50.742;7.158;2022-09-24T05:59:04;9.63;;;8.63;;
3643;SDS011;1838;50.742;7.158;2022-09-24T06:01:29;12.07;;;8.03;;
3643;SDS011;1838;50.742;7.158;2022-09-24T06:03:58;9.00;;;8.07;;
3643;SDS011;1838;50.742;7.158;2022-09-24T06:06:24;17.30;;;8.93;;
3643;SDS011;1838;50.742;7.158;2022-09-24T06:08:50;11.60;;;8.80;;
3643;SDS011;1838;50.742;7.158;2022-09-24T06:11:16;12.53;;;9.83;;
3643;SDS011;1838;50.742;7.158;2022-09-24T06:13:42;13.90;;;8.50;;
3643;SDS011;1838;50.742;7.158;2022-09-24T06:16:08;10.73;;;8.73;;
3643;SDS011;1838;50.742;7.158;2022-09-24T06:18:36;17.30;;;9.07;;
3643;SDS011;1838;50.742;7.158;2022-09-24T06:21:06;12.67;;;9.33;;
3643;SDS011;1838;50.742;7.158;2022-09-24T06:23:37;16.33;;;10.00;;
3643;SDS011;1838;50.742;7.158;2022-09-24T06:26:04;16.70;;;9.93;;
3643;SDS011;1838;50.742;7.158;2022-09-24T06:28:32;12.87;;;9.10;;
3643;SDS011;1838;50.742;7.158;2022-09-24T06:30:59;13.87;;;8.50;;
3643;SDS011;1838;50.742;7.158;2022-09-24T06:33:25;11.83;;;7.93;;
3643;SDS011;1838;50.742;7.158;2022-09-24T06:35:51;8.60;;;7.70;;
3643;SDS011;1838;50.742;7.158;2022-09-24T06:38:17;15.73;;;8.67;;
3643;SDS011;1838;50.742;7.158;2022-09-24T06:40:43;11.40;;;9.30;;
3643;SDS011;1838;50.742;7.158;2022-09-24T06:43:10;14.50;;;9.47;;
3643;SDS011;1838;50.742;7.158;2022-09-24T06:45:37;13.07;;;8.20;;
3643;SDS011;1838;50.742;7.158;2022-09-24T06:48:03;13.00;;;9.20;;
3643;SDS011;1838;50.742;7.158;2022-09-24T06:50:30;10.70;;;8.00;;
3643;SDS011;1838;50.742;7.158;2022-09-24T06:52:57;8.63;;;7.23;;
3643;SDS011;1838;50.742;7.158;2022-09-24T06:55:23;10.03;;;7.90;;
3643;SDS011;1838;50.742;7.158;2022-09-24T06:57:48;16.10;;;8.20;;
3643;SDS011;1838;50.742;7.158;2022-09-24T07:00:15;10.63;;;8.80;;
3643;SDS011;1838;50.742;7.158;2022-09-24T07:02:41;16.80;;;9.80;;
3643;SDS011;1838;50.742;7.158;2022-09-24T07:05:07;9.17;;;7.20;;
3643;SDS011;1838;50.742;7.158;2022-09-24T07:07:34;8.70;;;7.50;;
3643;SDS011;1838;50.742;7.158;2022-09-24T07:10:00;10.20;;;7.60;;
3643;SDS011;1838;50.742;7.158;2022-09-24T07:12:29;12.27;;;7.23;;
3643;SDS011;1838;50.742;7.158;2022-09-24T07:14:56;10.27;;;7.40;;
3643;SDS011;1838;50.742;7.158;2022-09-24T07:17:21;8.80;;;7.30;;
3643;SDS011;1838;50.742;7.158;2022-09-24T07:19:48;10.70;;;6.90;;
3643;SDS011;1838;50.742;7.158;2022-09-24T07:22:14;8.13;;;6.77;;
3643;SDS011;1838;50.742;7.158;2022-09-24T07:24:39;8.77;;;7.83;;
3643;SDS011;1838;50.742;7.158;2022-09-24T07:27:05;8.97;;;7.47;;
3643;SDS011;1838;50.742;7.158;2022-09-24T07:29:30;11.43;;;7.67;;
3643;SDS011;1838;50.742;7.158;2022-09-24T07:31:56;14.93;;;7.57;;
3643;SDS011;1838;50.742;7.158;2022-09-24T07:34:22;9.90;;;6.03;;
3643;SDS011;1838;50.742;7.158;2022-09-24T07:36:47;17.10;;;8.00;;
3643;SDS011;1838;50.742;7.158;2022-09-24T07:39:13;8.10;;;6.50;;
3643;SDS011;1838;50.742;7.158;2022-09-24T07:41:39;10.57;;;7.03;;
3643;SDS011;1838;50.742;7.158;2022-09-24T07:44:06;11.90;;;7.10;;
3643;SDS011;1838;50.742;7.158;2022-09-24T07:46:32;14.20;;;7.17;;
3643;SDS011;1838;50.742;7.158;2022-09-24T07:48:58;7.57;;;6.77;;
3643;SDS011;1838;50.742;7.158;2022-09-24T07:51:24;9.87;;;7.10;;
3643;SDS011;1838;50.742;7.158;2022-09-24T07:53:52;9.90;;;6.67;;
3643;SDS011;1838;50.742;7.158;2022-09-24T07:56:21;10.53;;;6.77;;
3643;SDS011;1838;50.742;7.158;2022-09-24T07:58:48;13.73;;;7.03;;
3643;SDS011;1838;50.742;7.158;2022-09-24T08:01:15;8.47;;;6.30;;
3643;SDS011;1838;50.742;7.158;2022-09-24T08:03:41;8.70;;;7.17;;
3643;SDS011;1838;50.742;7.158;2022-09-24T08:06:07;10.30;;;7.90;;
3643;SDS011;1838;50.742;7.158;2022-09-24T08:08:33;8.73;;;6.77;;
3643;SDS011;1838;50.742;7.158;2022-09-24T08:11:05;7.50;;;6.80;;
3643;SDS011;1838;50.742;7.158;2022-09-24T08:13:34;11.50;;;7.27;;
3643;SDS011;1838;50.742;7.158;2022-09-24T08:16:00;13.63;;;7.73;;
3643;SDS011;1838;50.742;7.158;2022-09-24T08:18:28;9.77;;;7.57;;
3643;SDS011;1838;50.742;7.158;2022-09-24T08:20:55;10.67;;;7.67;;
3643;SDS011;1838;50.742;7.158;2022-09-24T08:23:21;9.63;;;6.83;;
3643;SDS011;1838;50.742;7.158;2022-09-24T08:25:47;10.13;;;8.00;;
3643;SDS011;1838;50.742;7.158;2022-09-24T08:28:13;12.77;;;6.77;;
3643;SDS011;1838;50.742;7.158;2022-09-24T08:30:41;7.47;;;6.73;;
3643;SDS011;1838;50.742;7.158;2022-09-24T08:33:07;14.83;;;7.43;;
3643;SDS011;1838;50.742;7.158;2022-09-24T08:35:34;14.00;;;7.03;;
3643;SDS011;1838;50.742;7.158;2022-09-24T08:38:00;9.50;;;7.03;;
3643;SDS011;1838;50.742;7.158;2022-09-24T08:40:29;10.47;;;7.50;;
3643;SDS011;1838;50.742;7.158;2022-09-24T08:45:45;9.67;;;7.97;;
3643;SDS011;1838;50.742;7.158;2022-09-24T08:48:37;12.07;;;7.03;;
3643;SDS011;1838;50.742;7.158;2022-09-24T08:51:07;12.27;;;7.00;;
3643;SDS011;1838;50.742;7.158;2022-09-24T08:53:41;11.97;;;8.30;;
3643;SDS011;1838;50.742;7.158;2022-09-24T08:56:25;7.73;;;6.87;;
3643;SDS011;1838;50.742;7.158;2022-09-24T08:58:59;7.33;;;6.63;;
3643;SDS011;1838;50.742;7.158;2022-09-24T09:01:35;10.23;;;7.80;;
3643;SDS011;1838;50.742;7.158;2022-09-24T09:04:23;12.17;;;8.77;;
3643;SDS011;1838;50.742;7.158;2022-09-24T09:06:58;6.90;;;6.20;;
3643;SDS011;1838;50.742;7.158;2022-09-24T09:09:33;8.87;;;7.93;;
3643;SDS011;1838;50.742;7.158;2022-09-24T09:12:09;13.10;;;7.57;;
3643;SDS011;1838;50.742;7.158;2022-09-24T09:14:44;10.07;;;7.93;;
3643;SDS011;1838;50.742;7.158;2022-09-24T09:17:35;14.20;;;8.73;;
3643;SDS011;1838;50.742;7.158;2022-09-24T09:20:10;14.00;;;8.57;;
3643;SDS011;1838;50.742;7.158;2022-09-24T09:22:44;9.27;;;7.93;;
3643;SDS011;1838;50.742;7.158;2022-09-24T09:25:22;12.13;;;7.87;;
3643;SDS011;1838;50.742;7.158;2022-09-24T09:27:57;15.53;;;9.17;;
3643;SDS011;1838;50.742;7.158;2022-09-24T09:30:22;11.13;;;8.23;;
3643;SDS011;1838;50.742;7.158;2022-09-24T09:32:54;12.77;;;9.30;;
3643;SDS011;1838;50.742;7.158;2022-09-24T09:43:47;16.67;;;10.10;;
3643;SDS011;1838;50.742;7.158;2022-09-24T09:46:13;11.93;;;8.80;;
3643;SDS011;1838;50.742;7.158;2022-09-24T09:48:50;15.10;;;10.53;;
3643;SDS011;1838;50.742;7.158;2022-09-24T09:51:20;16.27;;;11.10;;
3643;SDS011;1838;50.742;7.158;2022-09-24T09:53:56;10.90;;;9.57;;
3643;SDS011;1838;50.742;7.158;2022-09-24T09:56:30;14.70;;;10.33;;
3643;SDS011;1838;50.742;7.158;2022-09-24T09:59:12;15.23;;;10.63;;
3643;SDS011;1838;50.742;7.158;2022-09-24T10:01:44;14.10;;;10.40;;
3643;SDS011;1838;50.742;7.158;2022-09-24T10:07:12;15.40;;;10.33;;
3643;SDS011;1838;50.742;7.158;2022-09-24T10:09:40;13.83;;;10.43;;
3643;SDS011;1838;50.742;7.158;2022-09-24T10:12:14;16.33;;;9.87;;
3643;SDS011;1838;50.742;7.158;2022-09-24T10:14:58;14.60;;;9.70;;
3643;SDS011;1838;50.742;7.158;2022-09-24T10:17:27;10.93;;;9.43;;
3643;SDS011;1838;50.742;7.158;2022-09-24T10:20:05;10.73;;;9.53;;
3643;SDS011;1838;50.742;7.158;2022-09-24T10:22:33;19.13;;;11.23;;
3643;SDS011;1838;50.742;7.158;2022-09-24T10:24:59;18.07;;;10.83;;
3643;SDS011;1838;50.742;7.158;2022-09-24T10:27:29;13.00;;;9.87;;
3643;SDS011;1838;50.742;7.158;2022-09-24T10:30:12;16.33;;;12.83;;
3643;SDS011;1838;50.742;7.158;2022-09-24T10:32:58;13.23;;;10.63;;
3643;SDS011;1838;50.742;7.158;2022-09-24T10:35:27;18.13;;;11.30;;
3643;SDS011;1838;50.742;7.158;2022-09-24T10:38:00;14.90;;;11.00;;
3643;SDS011;1838;50.742;7.158;2022-09-24T10:40:37;13.13;;;11.57;;
3643;SDS011;1838;50.742;7.158;2022-09-24T10:43:04;24.40;;;12.03;;
3643;SDS011;1838;50.742;7.158;2022-09-24T10:48:34;17.00;;;12.43;;
3643;SDS011;1838;50.742;7.158;2022-09-24T10:51:24;19.97;;;12.67;;
3643;SDS011;1838;50.742;7.158;2022-09-24T10:56:38;17.63;;;13.17;;
3643;SDS011;1838;50.742;7.158;2022-09-24T11:04:45;17.80;;;13.63;;
3643;SDS011;1838;50.742;7.158;2022-09-24T11:07:25;22.80;;;13.97;;
3643;SDS011;1838;50.742;7.158;2022-09-24T11:09:56;22.03;;;15.97;;
3643;SDS011;1838;50.742;7.158;2022-09-24T11:18:44;24.70;;;15.53;;
3643;SDS011;1838;50.742;7.158;2022-09-24T11:21:54;31.57;;;16.17;;
3643;SDS011;1838;50.742;7.158;2022-09-24T11:24:31;21.10;;;14.60;;
3643;SDS011;1838;50.742;7.158;2022-09-24T11:30:16;22.83;;;15.40;;
3643;SDS011;1838;50.742;7.158;2022-09-24T11:32:59;25.93;;;16.40;;
3643;SDS011;1838;50.742;7.158;2022-09-24T11:38:56;24.83;;;14.83;;
3643;SDS011;1838;50.742;7.158;2022-09-24T11:41:41;21.70;;;15.00;;
3643;SDS011;1838;50.742;7.158;2022-09-24T11:44:27;22.67;;;15.00;;
3643;SDS011;1838;50.742;7.158;2022-09-24T11:52:59;21.93;;;15.40;;
3643;SDS011;1838;50.742;7.158;2022-09-24T11:55:33;23.83;;;15.83;;
3643;SDS011;1838;50.742;7.158;2022-09-24T11:58:21;24.23;;;14.27;;
3643;SDS011;1838;50.742;7.158;2022-09-24T12:00:58;16.40;;;13.23;;
3643;SDS011;1838;50.742;7.158;2022-09-24T12:06:04;31.43;;;14.80;;
3643;SDS011;1838;50.742;7.158;2022-09-24T12:08:38;18.93;;;13.63;;
3643;SDS011;1838;50.742;7.158;2022-09-24T12:11:40;18.43;;;13.30;;
3643;SDS011;1838;50.742;7.158;2022-09-24T12:14:34;23.10;;;13.37;;
3643;SDS011;1838;50.742;7.158;2022-09-24T12:17:03;18.00;;;12.60;;
3643;SDS011;1838;50.742;7.158;2022-09-24T12:19:39;15.27;;;11.77;;
3643;SDS011;1838;50.742;7.158;2022-09-24T12:22:26;17.60;;;11.70;;
3643;SDS011;1838;50.742;7.158;2022-09-24T12:24:54;17.30;;;12.10;;
3643;SDS011;1838;50.742;7.158;2022-09-24T12:27:34;17.80;;;12.30;;
3643;SDS011;1838;50.742;7.158;2022-09-24T12:30:23;18.87;;;12.33;;
3643;SDS011;1838;50.742;7.158;2022-09-24T12:38:33;22.13;;;11.53;;
3643;SDS011;1838;50.742;7.158;2022-09-24T12:43:59;15.68;;;11.80;;
3643;SDS011;1838;50.742;7.158;2022-09-24T12:46:28;16.67;;;12.30;;
3643;SDS011;1838;50.742;7.158;2022-09-24T12:49:16;16.67;;;11.93;;
3643;SDS011;1838;50.742;7.158;2022-09-24T12:51:42;16.20;;;12.27;;
3643;SDS011;1838;50.742;7.158;2022-09-24T12:54:17;20.90;;;14.30;;
3643;SDS011;1838;50.742;7.158;2022-09-24T12:57:03;19.00;;;12.80;;
3643;SDS011;1838;50.742;7.158;2022-09-24T12:59:44;14.87;;;13.23;;
3643;SDS011;1838;50.742;7.158;2022-09-24T13:02:13;16.70;;;12.90;;
3643;SDS011;1838;50.742;7.158;2022-09-24T13:04:42;21.60;;;14.90;;
3643;SDS011;1838;50.742;7.158;2022-09-24T13:12:41;21.00;;;16.10;;
3643;SDS011;1838;50.742;7.158;2022-09-24T13:15:19;25.10;;;16.90;;
3643;SDS011;1838;50.742;7.158;2022-09-24T13:18:26;23.70;;;16.70;;
3643;SDS011;1838;50.742;7.158;2022-09-24T13:20:56;28.17;;;16.63;;
3643;SDS011;1838;50.742;7.158;2022-09-24T13:28:24;25.40;;;16.37;;
3643;SDS011;1838;50.742;7.158;2022-09-24T13:33:46;26.30;;;17.60;;
3643;SDS011;1838;50.742;7.158;2022-09-24T13:36:20;24.67;;;17.00;;
3643;SDS011;1838;50.742;7.158;2022-09-24T13:41:23;24.00;;;17.03;;
3643;SDS011;1838;50.742;7.158;2022-09-24T13:44:04;22.50;;;16.63;;
3643;SDS011;1838;50.742;7.158;2022-09-24T13:46:45;23.30;;;17.50;;
3643;SDS011;1838;50.742;7.158;2022-09-24T13:49:18;29.40;;;17.67;;
3643;SDS011;1838;50.742;7.158;2022-09-24T13:51:46;27.47;;;17.10;;
3643;SDS011;1838;50.742;7.158;2022-09-24T13:54:32;23.20;;;16.80;;
3643;SDS011;1838;50.742;7.158;2022-09-24T13:57:11;22.43;;;16.90;;
3643;SDS011;1838;50.742;7.158;2022-09-24T13:59:43;34.70;;;19.07;;
3643;SDS011;1838;50.742;7.158;2022-09-24T14:02:25;28.20;;;17.60;;
3643;SDS011;1838;50.742;7.158;2022-09-24T14:04:53;34.93;;;19.53;;
3643;SDS011;1838;50.742;7.158;2022-09-24T14:07:20;24.17;;;18.10;;
3643;SDS011;1838;50.742;7.158;2022-09-24T14:09:46;25.83;;;17.70;;
3643;SDS011;1838;50.742;7.158;2022-09-24T14:12:16;24.43;;;17.43;;
3643;SDS011;1838;50.742;7.158;2022-09-24T14:14:50;24.20;;;17.30;;
3643;SDS011;1838;50.742;7.158;2022-09-24T14:17:19;40.50;;;19.87;;
3643;SDS011;1838;50.742;7.158;2022-09-24T14:19:44;28.47;;;16.30;;
3643;SDS011;1838;50.742;7.158;2022-09-24T14:22:17;21.40;;;16.97;;
3643;SDS011;1838;50.742;7.158;2022-09-24T14:25:00;24.80;;;16.87;;
3643;SDS011;1838;50.742;7.158;2022-09-24T14:27:29;26.10;;;16.70;;
3643;SDS011;1838;50.742;7.158;2022-09-24T14:29:58;27.60;;;17.00;;
3643;SDS011;1838;50.742;7.158;2022-09-24T14:32:30;28.13;;;17.17;;
3643;SDS011;1838;50.742;7.158;2022-09-24T14:34:59;27.47;;;19.13;;
3643;SDS011;1838;50.742;7.158;2022-09-24T14:37:47;25.80;;;17.33;;
3643;SDS011;1838;50.742;7.158;2022-09-24T14:40:16;28.67;;;17.20;;
3643;SDS011;1838;50.742;7.158;2022-09-24T14:45:18;27.77;;;19.17;;
3643;SDS011;1838;50.742;7.158;2022-09-24T14:48:05;29.73;;;19.07;;
3643;SDS011;1838;50.742;7.158;2022-09-24T14:50:52;29.13;;;17.07;;
3643;SDS011;1838;50.742;7.158;2022-09-24T14:55:51;29.03;;;20.33;;
3643;SDS011;1838;50.742;7.158;2022-09-24T15:01:10;24.00;;;17.77;;
3643;SDS011;1838;50.742;7.158;2022-09-24T15:04:00;23.77;;;16.50;;
3643;SDS011;1838;50.742;7.158;2022-09-24T15:06:28;28.40;;;20.23;;
3643;SDS011;1838;50.742;7.158;2022-09-24T15:09:06;30.67;;;21.30;;
3643;SDS011;1838;50.742;7.158;2022-09-24T15:11:49;27.33;;;21.07;;
3643;SDS011;1838;50.742;7.158;2022-09-24T15:16:40;36.83;;;23.60;;
3643;SDS011;1838;50.742;7.158;2022-09-24T15:21:49;36.40;;;21.10;;
3643;SDS011;1838;50.742;7.158;2022-09-24T15:24:16;43.20;;;25.53;;
3643;SDS011;1838;50.742;7.158;2022-09-24T15:26:45;35.27;;;22.10;;
3643;SDS011;1838;50.742;7.158;2022-09-24T15:29:19;33.23;;;21.87;;
3643;SDS011;1838;50.742;7.158;2022-09-24T15:31:48;31.90;;;21.00;;
3643;SDS011;1838;50.742;7.158;2022-09-24T15:34:17;31.23;;;22.17;;
3643;SDS011;1838;50.742;7.158;2022-09-24T15:36:44;35.73;;;23.27;;
3643;SDS011;1838;50.742;7.158;2022-09-24T15:39:17;38.67;;;24.80;;
3643;SDS011;1838;50.742;7.158;2022-09-24T15:41:43;33.23;;;22.57;;
3643;SDS011;1838;50.742;7.158;2022-09-24T15:44:30;41.17;;;22.67;;
3643;SDS011;1838;50.742;7.158;2022-09-24T15:46:55;33.70;;;22.80;;
3643;SDS011;1838;50.742;7.158;2022-09-24T15:49:21;31.13;;;22.83;;
3643;SDS011;1838;50.742;7.158;2022-09-24T15:51:50;31.77;;;20.13;;
3643;SDS011;1838;50.742;7.158;2022-09-24T15:54:18;42.47;;;24.63;;
3643;SDS011;1838;50.742;7.158;2022-09-24T15:56:45;51.13;;;33.47;;
3643;SDS011;1838;50.742;7.158;2022-09-24T15:59:16;36.77;;;24.50;;
3643;SDS011;1838;50.742;7.158;2022-09-24T16:01:43;33.13;;;22.90;;
3643;SDS011;1838;50.742;7.158;2022-09-24T16:04:10;31.30;;;21.80;;
3643;SDS011;1838;50.742;7.158;2022-09-24T16:06:36;36.17;;;21.13;;
3643;SDS011;1838;50.742;7.158;2022-09-24T16:09:02;37.23;;;22.33;;
3643;SDS011;1838;50.742;7.158;2022-09-24T16:11:29;41.57;;;24.20;;
3643;SDS011;1838;50.742;7.158;2022-09-24T16:13:55;38.07;;;24.90;;
3643;SDS011;1838;50.742;7.158;2022-09-24T16:16:21;38.33;;;24.03;;
3643;SDS011;1838;50.742;7.158;2022-09-24T16:18:46;40.13;;;25.27;;
3643;SDS011;1838;50.742;7.158;2022-09-24T16:21:12;33.57;;;23.97;;
3643;SDS011;1838;50.742;7.158;2022-09-24T16:23:37;36.10;;;24.10;;
3643;SDS011;1838;50.742;7.158;2022-09-24T16:26:03;37.83;;;22.80;;
3643;SDS011;1838;50.742;7.158;2022-09-24T16:28:29;42.23;;;25.67;;
3643;SDS011;1838;50.742;7.158;2022-09-24T16:30:54;41.97;;;24.87;;
3643;SDS011;1838;50.742;7.158;2022-09-24T16:33:20;34.27;;;21.73;;
3643;SDS011;1838;50.742;7.158;2022-09-24T16:35:46;29.90;;;23.27;;
3643;SDS011;1838;50.742;7.158;2022-09-24T16:38:12;37.40;;;25.60;;
3643;SDS011;1838;50.742;7.158;2022-09-24T16:40:38;34.53;;;22.57;;
3643;SDS011;1838;50.742;7.158;2022-09-24T16:43:03;33.70;;;23.20;;
3643;SDS011;1838;50.742;7.158;2022-09-24T16:45:30;39.73;;;24.77;;
3643;SDS011;1838;50.742;7.158;2022-09-24T16:47:56;37.63;;;24.27;;
3643;SDS011;1838;50.742;7.158;2022-09-24T16:50:21;36.90;;;24.80;;